Time;durP1;ratioP1;P1;durP2;ratioP2;P2;SDS_P1;SDS_P2;PMS_P1;PMS_P2;Temp;Humidity;BMP_temperature;BMP_pressure;BME280_temperature;BME280_humidity;BME280_pressure;Samples;Min_cycle;Max_cycle;Signal;HPM_P1;HPM_P2
2023/11/26 00:00:58;;;;;;;5.75;3.00;;;;;;;5.45;98.37;97761.00;4173937;28;20260;-87
2023/11/26 00:03:04;;;;;;;3.75;2.75;;;;;;;5.43;97.86;97773.19;4186966;28;20229;-87
2023/11/26 00:05:08;;;;;;;4.20;2.78;;;;;;;5.50;98.30;97773.69;4195408;28;20679;-87
2023/11/26 00:07:12;;;;;;;3.95;2.65;;;;;;;5.48;98.29;97778.09;4205407;28;20266;-87
2023/11/26 00:09:15;;;;;;;3.65;2.35;;;;;;;5.47;97.94;97776.44;4186171;28;20210;-87
2023/11/26 00:11:18;;;;;;;6.45;3.25;;;;;;;5.48;97.89;97771.19;4185841;28;20244;-87
2023/11/26 00:13:22;;;;;;;3.33;2.85;;;;;;;5.48;97.85;97781.53;4176755;28;20200;-87
2023/11/26 00:15:25;;;;;;;4.30;2.65;;;;;;;5.48;97.58;97789.28;4181838;28;20253;-87
2023/11/26 00:17:28;;;;;;;3.85;2.53;;;;;;;5.46;97.73;97788.53;4177797;28;20241;-87
2023/11/26 00:19:33;;;;;;;4.05;2.50;;;;;;;5.46;97.42;97792.84;4192889;28;20205;-87
2023/11/26 00:21:37;;;;;;;5.03;2.60;;;;;;;5.45;97.36;97796.38;4195307;28;20209;-87
2023/11/26 00:23:40;;;;;;;2.80;2.22;;;;;;;5.42;96.75;97797.34;4190895;28;20205;-87
2023/11/26 00:25:45;;;;;;;3.55;2.45;;;;;;;5.39;96.94;97802.69;4179432;28;20241;-87
2023/11/26 00:27:48;;;;;;;3.60;2.40;;;;;;;5.36;96.22;97804.59;4195194;28;20770;-87
2023/11/26 00:29:52;;;;;;;6.15;2.30;;;;;;;5.36;96.73;97809.78;4173294;28;20226;-87
2023/11/26 00:31:55;;;;;;;2.97;1.80;;;;;;;5.37;97.06;97811.47;4207208;28;20237;-87
2023/11/26 00:33:58;;;;;;;3.63;2.05;;;;;;;5.35;96.43;97819.28;4176402;28;20214;-87
2023/11/26 00:36:02;;;;;;;5.78;2.72;;;;;;;5.36;96.46;97815.78;4192192;28;20324;-87
2023/11/26 00:38:05;;;;;;;2.75;2.20;;;;;;;5.35;96.65;97831.38;4190934;28;20197;-87
2023/11/26 00:40:12;;;;;;;5.38;2.28;;;;;;;5.34;96.26;97827.13;4178775;28;20214;-87
2023/11/26 00:42:17;;;;;;;4.35;2.20;;;;;;;5.33;97.08;97825.44;4196653;28;20210;-87
2023/11/26 00:44:19;;;;;;;3.25;2.22;;;;;;;5.35;97.46;97834.81;4189567;28;20205;-87
2023/11/26 00:46:22;;;;;;;4.38;2.67;;;;;;;5.36;96.65;97835.63;4185830;28;20279;-87
2023/11/26 00:48:27;;;;;;;4.40;2.30;;;;;;;5.36;96.68;97835.63;4193879;28;20768;-87
2023/11/26 00:50:30;;;;;;;4.65;2.70;;;;;;;5.34;96.33;97837.47;4195500;28;20701;-87
2023/11/26 00:52:33;;;;;;;3.95;2.45;;;;;;;5.32;97.50;97828.94;4193840;28;20566;-87
2023/11/26 00:54:36;;;;;;;3.45;2.40;;;;;;;5.30;97.52;97830.78;4191819;28;20230;-87
2023/11/26 00:56:39;;;;;;;6.38;2.83;;;;;;;5.30;96.74;97835.94;4193041;28;20258;-87
2023/11/26 00:58:44;;;;;;;4.85;3.15;;;;;;;5.29;97.32;97832.53;4190862;28;20205;-87
2023/11/26 01:00:47;;;;;;;3.88;2.22;;;;;;;5.31;96.63;97833.28;4179021;28;20206;-87
2023/11/26 01:02:51;;;;;;;4.35;2.40;;;;;;;5.26;97.20;97844.75;4178887;28;20234;-87
2023/11/26 01:04:54;;;;;;;5.05;2.97;;;;;;;5.27;96.86;97842.09;4177667;28;20661;-87
2023/11/26 01:06:58;;;;;;;5.70;2.50;;;;;;;5.28;97.38;97843.78;4193016;28;20225;-87
2023/11/26 01:09:01;;;;;;;3.78;2.88;;;;;;;5.28;97.41;97851.53;4193198;28;20197;-87
2023/11/26 01:11:06;;;;;;;4.00;2.80;;;;;;;5.30;97.27;97854.03;4177389;28;20214;-87
2023/11/26 01:13:09;;;;;;;3.10;2.50;;;;;;;5.28;97.32;97855.88;4186557;28;20746;-87
2023/11/26 01:15:14;;;;;;;3.65;2.58;;;;;;;5.29;97.07;97867.88;4191446;28;20225;-87
2023/11/26 01:17:17;;;;;;;4.68;2.83;;;;;;;5.29;97.49;97865.28;4173881;28;20754;-87
2023/11/26 01:19:20;;;;;;;3.45;2.70;;;;;;;5.30;97.71;97862.63;4192819;28;20206;-87
2023/11/26 01:21:24;;;;;;;3.50;2.33;;;;;;;5.32;97.62;97868.56;4190103;28;20308;-87
2023/11/26 01:23:27;;;;;;;3.97;2.70;;;;;;;5.34;97.13;97868.50;4183764;28;20202;-86
2023/11/26 01:25:30;;;;;;;5.97;3.22;;;;;;;5.33;97.09;97875.38;4191226;28;20210;-87
2023/11/26 01:27:34;;;;;;;4.07;2.67;;;;;;;5.33;97.07;97877.97;4189003;28;20642;-87
2023/11/26 01:29:37;;;;;;;4.72;2.63;;;;;;;5.35;97.16;97880.47;4175468;28;20303;-87
2023/11/26 01:31:41;;;;;;;3.72;2.70;;;;;;;5.34;96.92;97884.81;4190003;28;20233;-86
2023/11/26 01:33:44;;;;;;;5.88;3.25;;;;;;;5.36;97.50;97883.00;4195213;28;20256;-86
2023/11/26 01:35:46;;;;;;;4.35;2.80;;;;;;;5.36;97.12;97884.75;4190067;28;20242;-86
2023/11/26 01:37:50;;;;;;;7.97;4.10;;;;;;;5.35;97.42;97883.06;4192306;28;20297;-86
2023/11/26 01:39:52;;;;;;;6.35;3.45;;;;;;;5.35;96.74;97883.94;4192376;28;20751;-87
2023/11/26 01:41:55;;;;;;;5.85;3.65;;;;;;;5.36;97.20;97884.75;4193017;28;20214;-87
2023/11/26 01:43:58;;;;;;;4.32;3.17;;;;;;;5.37;97.38;97882.09;4193143;28;20236;-87
2023/11/26 01:46:05;;;;;;;4.78;3.10;;;;;;;5.35;96.66;97891.69;4188483;28;20221;-87
2023/11/26 01:48:10;;;;;;;3.97;3.05;;;;;;;5.36;96.90;97895.91;4174715;28;20309;-87
2023/11/26 01:50:19;;;;;;;5.65;3.55;;;;;;;5.33;96.87;97896.06;4190189;28;20234;-87
2023/11/26 01:52:22;;;;;;;12.80;3.78;;;;;;;5.33;96.41;97901.25;4192633;28;20299;-87
2023/11/26 01:54:26;;;;;;;7.47;3.50;;;;;;;5.35;95.98;97889.09;4190726;28;20318;-87
2023/11/26 01:56:29;;;;;;;5.25;3.20;;;;;;;5.35;96.41;97896.00;4191301;28;20217;-87
2023/11/26 01:58:32;;;;;;;5.80;3.25;;;;;;;5.32;96.11;97897.00;4172784;28;20290;-87
2023/11/26 02:00:36;;;;;;;4.15;2.83;;;;;;;5.29;95.65;97894.56;4171398;28;20206;-87
2023/11/26 02:02:40;;;;;;;5.25;3.10;;;;;;;5.30;95.88;97908.31;4183123;28;20237;-87
2023/11/26 02:04:45;;;;;;;4.05;2.97;;;;;;;5.31;95.58;97902.25;4190540;28;20213;-87
2023/11/26 02:06:49;;;;;;;5.10;3.33;;;;;;;5.27;95.39;97906.72;4173795;28;20210;-87
2023/11/26 02:08:53;;;;;;;8.52;3.70;;;;;;;5.25;95.88;97908.56;4189534;28;20247;-87
2023/11/26 02:10:56;;;;;;;7.97;4.03;;;;;;;5.27;95.97;97905.91;4184906;28;20868;-86
2023/11/26 02:13:03;;;;;;;7.70;3.95;;;;;;;5.26;95.86;97912.81;4170237;28;20212;-86
2023/11/26 02:15:09;;;;;;;5.82;3.85;;;;;;;5.29;96.05;97914.41;4173423;28;20202;-87
2023/11/26 02:17:14;;;;;;;7.25;4.10;;;;;;;5.29;95.63;97914.41;4188418;28;20202;-87
2023/11/26 02:19:26;;;;;;;9.20;4.68;;;;;;;5.29;96.18;97916.97;4174243;28;20260;-86
2023/11/26 02:21:32;;;;;;;8.10;4.82;;;;;;;5.30;96.20;97923.84;4192007;28;20392;-86
2023/11/26 02:23:36;;;;;;;10.88;5.90;;;;;;;5.28;95.57;97923.91;4192368;28;20270;-86
2023/11/26 02:25:42;;;;;;;6.82;4.80;;;;;;;5.29;95.15;97924.72;4192004;28;20579;-87
2023/11/26 02:27:47;;;;;;;6.90;3.78;;;;;;;5.29;95.20;97928.19;4166211;28;20240;-87
2023/11/26 02:29:51;;;;;;;6.25;3.67;;;;;;;5.25;95.76;97923.25;4175644;28;20210;-87
2023/11/26 02:31:54;;;;;;;3.60;3.05;;;;;;;5.24;95.65;97918.97;4192032;28;20227;-87
2023/11/26 02:33:58;;;;;;;4.80;3.72;;;;;;;5.23;95.35;97914.69;4190908;28;20231;-87
2023/11/26 02:36:02;;;;;;;4.47;3.50;;;;;;;5.21;95.34;97916.53;4190612;28;20209;-87
2023/11/26 02:38:06;;;;;;;6.55;3.35;;;;;;;5.20;94.85;97918.28;4171765;28;20668;-87
2023/11/26 02:40:11;;;;;;;4.40;3.58;;;;;;;5.20;94.98;97920.03;4167796;28;20294;-87
2023/11/26 02:42:17;;;;;;;6.70;3.80;;;;;;;5.15;95.39;97920.25;4173136;28;20696;-87
2023/11/26 02:44:21;;;;;;;5.30;3.70;;;;;;;5.17;95.58;97930.50;4205912;28;20271;-87
2023/11/26 02:46:23;;;;;;;4.65;3.72;;;;;;;5.20;95.74;97931.22;4173684;28;20218;-87
2023/11/26 02:48:27;;;;;;;4.00;3.40;;;;;;;5.22;95.33;97936.31;4189457;28;20226;-87
2023/11/26 02:50:30;;;;;;;5.18;3.95;;;;;;;5.24;95.56;97932.72;4191394;28;20896;-87
2023/11/26 02:52:35;;;;;;;5.63;3.20;;;;;;;5.24;95.37;97927.56;4190391;28;20264;-86
2023/11/26 02:54:39;;;;;;;5.93;3.50;;;;;;;5.25;95.56;97931.81;4200698;28;20198;-86
2023/11/26 02:56:45;;;;;;;4.40;3.50;;;;;;;5.24;95.53;97927.56;4193437;28;20702;-86
2023/11/26 02:58:52;;;;;;;4.97;3.70;;;;;;;5.24;95.03;97926.72;4191099;28;20201;-86
2023/11/26 03:00:56;;;;;;;4.57;3.78;;;;;;;5.23;95.07;97925.91;4175056;28;20214;-86
2023/11/26 03:03:00;;;;;;;4.50;3.70;;;;;;;5.24;94.38;97930.13;4193732;28;20668;-86
2023/11/26 03:05:05;;;;;;;7.00;4.07;;;;;;;5.24;94.59;97927.56;4190795;28;20255;-87
2023/11/26 03:07:10;;;;;;;5.60;3.90;;;;;;;5.24;94.82;97932.72;4186820;28;20698;-87
2023/11/26 03:09:37;;;;;;;4.53;3.55;;;;;;;5.25;94.74;97936.16;4192908;28;20235;-87
2023/11/26 03:14:04;;;;;;;8.13;3.92;;;;;;;5.21;95.13;97938.03;4202422;28;20204;-87
2023/11/26 03:16:08;;;;;;;6.55;4.22;;;;;;;5.21;95.09;97939.78;4187511;28;20312;-87
2023/11/26 03:18:12;;;;;;;6.43;4.50;;;;;;;5.18;95.32;97945.13;4195918;28;20233;-86
2023/11/26 03:20:19;;;;;;;6.40;4.55;;;;;;;5.18;95.59;97952.88;4185811;28;20208;-87
2023/11/26 03:22:23;;;;;;;6.15;4.35;;;;;;;5.20;95.34;97948.44;4176659;28;20226;-86
2023/11/26 03:24:27;;;;;;;6.60;5.32;;;;;;;5.21;95.37;97938.03;4188287;28;20201;-87
2023/11/26 03:26:32;;;;;;;6.35;4.80;;;;;;;5.22;95.54;97954.41;4187488;28;20260;-86
2023/11/26 03:28:35;;;;;;;7.18;5.40;;;;;;;5.23;95.93;97944.00;4185475;28;20675;-87
2023/11/26 03:30:40;;;;;;;6.93;5.00;;;;;;;5.22;95.36;97944.88;4172248;28;20206;-87
2023/11/26 03:32:44;;;;;;;6.22;4.50;;;;;;;5.22;95.38;97933.72;4187869;28;20296;-87
2023/11/26 03:34:49;;;;;;;6.72;5.30;;;;;;;5.22;95.19;97934.56;4186698;28;20272;-87
2023/11/26 03:36:53;;;;;;;11.23;5.28;;;;;;;5.24;95.82;97932.72;4176697;28;20766;-87
2023/11/26 03:38:55;;;;;;;9.18;5.43;;;;;;;5.25;96.12;97931.00;4191865;28;20657;-87
2023/11/26 03:40:59;;;;;;;7.97;5.22;;;;;;;5.24;95.11;97932.72;4198052;28;20197;-87
2023/11/26 03:43:02;;;;;;;9.75;6.00;;;;;;;5.22;96.03;97931.97;4190345;28;20390;-87
2023/11/26 03:45:07;;;;;;;7.13;5.25;;;;;;;5.23;96.39;97936.25;4171283;28;20205;-87
2023/11/26 03:47:15;;;;;;;8.15;5.47;;;;;;;5.24;96.07;97937.06;4175860;28;21006;-87
2023/11/26 03:49:19;;;;;;;8.90;5.32;;;;;;;5.24;96.18;97935.31;4204804;28;20273;-87
2023/11/26 03:51:23;;;;;;;9.32;6.82;;;;;;;5.27;95.75;97935.16;4190967;28;20206;-87
2023/11/26 03:53:26;;;;;;;10.98;5.32;;;;;;;5.29;96.07;97937.66;4192133;28;20296;-87
2023/11/26 03:55:29;;;;;;;9.52;5.65;;;;;;;5.28;95.74;97939.41;4188129;28;20258;-86
2023/11/26 03:57:32;;;;;;;9.55;6.43;;;;;;;5.26;96.05;97941.25;4183393;28;20210;-87
2023/11/26 03:59:35;;;;;;;10.63;6.05;;;;;;;5.25;95.60;97949.91;4178597;28;20264;-87
2023/11/26 04:01:39;;;;;;;7.20;5.53;;;;;;;5.25;95.60;97942.16;4171472;28;20215;-87
2023/11/26 04:03:44;;;;;;;10.13;5.90;;;;;;;5.26;96.05;97948.16;4178925;28;20234;-87
2023/11/26 04:05:47;;;;;;;9.38;5.68;;;;;;;5.26;96.46;97951.59;4184095;28;20209;-87
2023/11/26 04:07:51;;;;;;;8.15;5.43;;;;;;;5.25;95.15;97956.84;4188792;28;20212;-87
2023/11/26 04:09:55;;;;;;;8.43;5.95;;;;;;;5.23;94.92;97956.91;4191500;28;20591;-86
2023/11/26 04:11:59;;;;;;;10.18;6.22;;;;;;;5.21;94.98;97963.88;4185105;28;20282;-87
2023/11/26 04:14:03;;;;;;;7.00;5.13;;;;;;;5.21;95.80;97955.31;4192388;28;20572;-87
2023/11/26 04:16:07;;;;;;;7.78;5.75;;;;;;;5.19;96.27;97954.56;4173380;28;20202;-86
2023/11/26 04:18:11;;;;;;;9.00;5.70;;;;;;;5.20;95.63;97959.66;4191688;28;20197;-86
2023/11/26 04:20:15;;;;;;;9.45;6.82;;;;;;;5.21;96.80;97969.06;4174680;28;20226;-87
2023/11/26 04:22:19;;;;;;;10.77;6.30;;;;;;;5.20;95.87;97966.53;4175627;28;20221;-86
2023/11/26 04:24:23;;;;;;;9.00;6.00;;;;;;;5.18;96.70;97965.78;4188758;28;20206;-86
2023/11/26 04:26:26;;;;;;;9.23;5.80;;;;;;;5.15;96.37;97964.19;4184282;28;20209;-87
2023/11/26 04:28:47;;;;;;;8.77;5.85;;;;;;;5.18;96.75;97968.38;4185830;28;20249;-87
2023/11/26 04:30:51;;;;;;;8.30;5.93;;;;;;;5.15;96.52;97973.69;4187527;28;20261;-87
2023/11/26 04:32:55;;;;;;;11.75;6.43;;;;;;;5.15;96.69;97974.53;4188831;28;20209;-87
2023/11/26 04:34:58;;;;;;;12.93;7.05;;;;;;;5.16;96.01;97972.78;4191108;28;20544;-88
2023/11/26 04:37:02;;;;;;;11.50;5.90;;;;;;;5.16;97.03;97978.78;4175044;28;20210;-87
2023/11/26 04:39:07;;;;;;;9.65;6.32;;;;;;;5.19;96.22;97978.66;4191521;28;20209;-87
2023/11/26 04:41:11;;;;;;;10.35;7.18;;;;;;;5.23;96.49;97987.06;4190492;28;20288;-86
2023/11/26 04:43:14;;;;;;;8.40;6.60;;;;;;;5.23;96.06;97987.94;4171409;28;20234;-87
2023/11/26 04:45:18;;;;;;;9.77;6.13;;;;;;;5.24;96.84;97993.94;4191089;28;20617;-86
2023/11/26 04:47:21;;;;;;;11.88;6.30;;;;;;;5.25;96.32;97996.44;4183712;28;20233;-86
2023/11/26 04:49:24;;;;;;;9.30;6.88;;;;;;;5.26;96.06;97995.53;4189596;28;20226;-86
2023/11/26 04:51:28;;;;;;;10.48;7.22;;;;;;;5.28;96.28;97991.13;4187286;28;20206;-87
2023/11/26 04:53:31;;;;;;;9.43;6.72;;;;;;;5.28;96.52;97993.69;4185840;28;21129;-87
2023/11/26 04:55:35;;;;;;;10.18;7.22;;;;;;;5.28;96.31;97996.28;4186914;28;20214;-87
2023/11/26 04:57:38;;;;;;;11.48;6.78;;;;;;;5.31;96.63;98006.47;4188968;28;20838;-87
2023/11/26 04:59:40;;;;;;;12.82;7.03;;;;;;;5.32;96.41;98007.31;4200612;28;20222;-86
2023/11/26 05:01:44;;;;;;;12.30;6.90;;;;;;;5.33;96.02;98001.22;4190077;28;20627;-87
2023/11/26 05:03:47;;;;;;;10.77;7.43;;;;;;;5.32;96.45;98008.16;4184374;28;20206;-87
2023/11/26 05:05:51;;;;;;;10.93;6.50;;;;;;;5.32;96.69;98013.34;4185942;28;20699;-87
2023/11/26 05:07:54;;;;;;;9.90;7.47;;;;;;;5.33;96.09;98014.97;4193637;28;20731;-87
2023/11/26 05:09:59;;;;;;;9.63;6.72;;;;;;;5.32;96.31;98018.50;4188310;28;20225;-87
2023/11/26 05:12:01;;;;;;;10.60;7.53;;;;;;;5.30;96.72;98016.88;4192114;28;20229;-87
2023/11/26 05:14:05;;;;;;;11.35;7.43;;;;;;;5.31;97.04;98021.16;4174849;28;20210;-87
2023/11/26 05:16:09;;;;;;;10.13;6.80;;;;;;;5.31;96.25;98019.41;4178268;28;20248;-87
2023/11/26 05:18:12;;;;;;;11.20;7.90;;;;;;;5.32;96.20;98022.81;4194323;28;20209;-87
2023/11/26 05:20:15;;;;;;;10.13;6.93;;;;;;;5.30;96.16;98025.47;4179096;28;20276;-87
2023/11/26 05:22:19;;;;;;;13.52;6.97;;;;;;;5.32;96.41;98023.66;4173123;28;20207;-87
2023/11/26 05:24:22;;;;;;;11.13;6.72;;;;;;;5.33;96.43;98024.50;4188981;28;20559;-87
2023/11/26 05:26:27;;;;;;;9.30;6.80;;;;;;;5.33;96.56;98020.16;4183968;28;20209;-87
2023/11/26 05:28:31;;;;;;;9.25;6.47;;;;;;;5.36;96.35;98029.53;4186072;28;20228;-87
2023/11/26 05:30:34;;;;;;;12.07;6.45;;;;;;;5.35;96.32;98035.59;4197632;28;20282;-87
2023/11/26 05:32:37;;;;;;;8.80;6.05;;;;;;;5.36;97.09;98039.84;4170154;28;20210;-87
2023/11/26 05:34:41;;;;;;;12.32;7.15;;;;;;;5.36;96.53;98040.69;4172963;28;20280;-87
2023/11/26 05:36:44;;;;;;;9.40;5.93;;;;;;;5.37;96.50;98036.38;4193221;28;20206;-86
2023/11/26 05:38:47;;;;;;;8.73;5.85;;;;;;;5.37;95.60;98044.13;4192143;28;20217;-87
2023/11/26 05:40:50;;;;;;;8.65;5.88;;;;;;;5.38;95.81;98043.19;4192254;28;20202;-88
2023/11/26 05:42:55;;;;;;;11.48;6.07;;;;;;;5.37;95.81;98042.38;4190831;28;20201;-87
2023/11/26 05:44:59;;;;;;;8.00;5.20;;;;;;;5.39;96.63;98047.47;4192414;28;20209;-87
2023/11/26 05:47:02;;;;;;;15.15;6.43;;;;;;;5.38;96.06;98038.03;4182389;28;20211;-87
2023/11/26 05:49:06;;;;;;;10.20;6.00;;;;;;;5.40;96.51;98052.56;4188271;28;20559;-87
2023/11/26 05:51:09;;;;;;;10.25;5.88;;;;;;;5.39;95.68;98050.06;4188867;28;20708;-87
2023/11/26 05:53:12;;;;;;;9.32;6.15;;;;;;;5.39;96.08;98044.88;4172891;28;20220;-86
2023/11/26 05:55:20;;;;;;;10.95;5.55;;;;;;;5.39;96.10;98053.47;4187507;28;20692;-86
2023/11/26 05:57:23;;;;;;;9.75;6.20;;;;;;;5.40;96.75;98049.16;4191962;28;20217;-87
2023/11/26 05:59:28;;;;;;;9.23;5.65;;;;;;;5.40;96.44;98049.16;4188037;28;20206;-86
2023/11/26 06:01:31;;;;;;;9.43;5.50;;;;;;;5.39;96.66;98055.22;4194312;28;20213;-87
2023/11/26 06:03:36;;;;;;;9.75;5.47;;;;;;;5.40;96.49;98049.16;4186362;28;20266;-87
2023/11/26 06:05:40;;;;;;;9.30;5.75;;;;;;;5.40;97.39;98049.16;4191727;28;20212;-87
2023/11/26 06:07:43;;;;;;;11.63;6.03;;;;;;;5.40;96.76;98042.22;4187492;28;20205;-87
2023/11/26 06:09:46;;;;;;;9.85;6.28;;;;;;;5.41;96.49;98045.63;4187354;28;20206;-87
2023/11/26 06:11:49;;;;;;;10.32;6.88;;;;;;;5.43;96.49;98051.59;4190133;28;20226;-87
2023/11/26 06:13:52;;;;;;;12.57;6.20;;;;;;;5.43;96.77;98055.00;4189818;28;20205;-87
2023/11/26 06:15:57;;;;;;;10.38;5.45;;;;;;;5.43;96.31;98060.16;4203664;28;20205;-87
2023/11/26 06:17:59;;;;;;;8.63;4.63;;;;;;;5.43;96.35;98064.50;4173866;28;20556;-87
2023/11/26 06:20:03;;;;;;;8.20;5.35;;;;;;;5.40;97.00;98062.91;4187597;28;20204;-87
2023/11/26 06:22:06;;;;;;;6.90;4.55;;;;;;;5.40;97.11;98068.06;4189725;28;20204;-87
2023/11/26 06:24:10;;;;;;;7.05;4.53;;;;;;;5.40;96.70;98062.09;4192986;28;20210;-87
2023/11/26 06:26:16;;;;;;;8.38;5.10;;;;;;;5.39;96.81;98063.81;4190320;28;20193;-87
2023/11/26 06:28:19;;;;;;;10.55;5.38;;;;;;;5.41;97.32;98066.31;4173114;28;20198;-87
2023/11/26 06:30:23;;;;;;;7.43;4.80;;;;;;;5.38;96.71;98067.31;4188469;28;20217;-87
2023/11/26 06:32:27;;;;;;;7.95;4.63;;;;;;;5.40;96.82;98062.91;4194209;28;20287;-87
2023/11/26 06:34:31;;;;;;;7.10;4.80;;;;;;;5.43;97.01;98069.69;4190240;28;20208;-87
2023/11/26 06:36:33;;;;;;;8.10;4.45;;;;;;;5.43;97.08;98067.09;4187393;28;20303;-87
2023/11/26 06:38:37;;;;;;;8.85;4.20;;;;;;;5.45;96.88;98066.09;4204428;28;20209;-87
2023/11/26 06:40:40;;;;;;;7.18;4.25;;;;;;;5.45;96.76;98063.50;4167539;28;20234;-87
2023/11/26 06:42:44;;;;;;;6.35;4.15;;;;;;;5.45;96.64;98060.94;4186902;28;20209;-87
2023/11/26 06:44:47;;;;;;;6.93;4.55;;;;;;;5.44;96.92;98059.28;4175669;28;20210;-88
2023/11/26 06:46:52;;;;;;;7.90;4.45;;;;;;;5.46;96.54;98065.19;4168209;28;20752;-86
2023/11/26 06:48:57;;;;;;;5.18;3.50;;;;;;;5.48;97.32;98065.94;4171014;28;20210;-87
2023/11/26 06:51:00;;;;;;;7.80;4.00;;;;;;;5.46;96.54;98075.53;4173750;28;20234;-87
2023/11/26 06:53:04;;;;;;;7.95;5.18;;;;;;;5.43;96.72;98075.69;4174297;28;20610;-87
2023/11/26 06:55:08;;;;;;;9.02;4.70;;;;;;;5.42;96.81;98076.59;4171640;28;20563;-87
2023/11/26 06:57:11;;;;;;;5.28;4.05;;;;;;;5.43;96.22;98088.63;4190748;28;20296;-88
2023/11/26 06:59:15;;;;;;;8.68;5.00;;;;;;;5.40;96.21;98104.28;4186211;28;20202;-87
2023/11/26 07:01:17;;;;;;;15.15;7.00;;;;;;;5.39;96.42;98102.59;4175058;28;20210;-86
2023/11/26 07:03:20;;;;;;;9.40;5.70;;;;;;;5.36;96.09;98096.75;4186740;28;20236;-86
2023/11/26 07:05:25;;;;;;;9.13;5.68;;;;;;;5.29;95.03;98091.03;4188367;28;21579;-87
2023/11/26 07:07:28;;;;;;;6.60;4.43;;;;;;;5.23;95.40;98096.50;4187485;28;20285;-87
2023/11/26 07:09:32;;;;;;;6.85;3.88;;;;;;;5.17;95.00;98094.19;4190336;28;20259;-87
2023/11/26 07:11:34;;;;;;;5.90;3.75;;;;;;;5.13;95.23;98102.16;4187899;28;20695;-87
2023/11/26 07:13:41;;;;;;;7.20;5.00;;;;;;;5.11;94.27;98110.88;4186949;28;20201;-87
2023/11/26 07:15:44;;;;;;;5.72;4.30;;;;;;;5.07;94.51;98105.03;4188007;28;21148;-87
2023/11/26 07:17:48;;;;;;;4.68;3.75;;;;;;;5.04;94.53;98110.34;4185399;28;20206;-87
2023/11/26 07:19:51;;;;;;;6.95;4.28;;;;;;;5.02;94.10;98127.66;4190201;28;20705;-87
2023/11/26 07:21:56;;;;;;;10.18;7.25;;;;;;;4.99;94.69;98126.94;4184105;28;20199;-87
2023/11/26 07:23:59;;;;;;;9.30;5.90;;;;;;;4.99;94.71;98119.19;4189210;28;20197;-87
2023/11/26 07:26:01;;;;;;;8.55;6.20;;;;;;;4.97;95.56;98124.44;4186024;28;20206;-88
2023/11/26 07:28:07;;;;;;;8.20;5.63;;;;;;;4.95;95.35;98123.69;4188981;28;20247;-87
2023/11/26 07:30:11;;;;;;;9.18;7.20;;;;;;;4.99;95.41;98132.97;4183720;28;20702;-87
2023/11/26 07:32:14;;;;;;;9.30;6.68;;;;;;;5.01;95.70;98127.75;4183192;28;20284;-87
2023/11/26 07:34:17;;;;;;;22.65;18.65;;;;;;;4.96;95.50;98121.91;4174023;28;20313;-87
2023/11/26 07:36:23;;;;;;;11.65;8.13;;;;;;;4.95;95.73;98130.59;4186905;28;20229;-87
2023/11/26 07:38:29;;;;;;;6.68;5.70;;;;;;;4.99;95.42;98139.88;4187070;28;20631;-87
2023/11/26 07:40:32;;;;;;;13.80;10.70;;;;;;;4.96;95.34;98137.44;4184671;28;20214;-87
2023/11/26 07:42:37;;;;;;;10.20;7.90;;;;;;;4.95;96.18;98146.09;4176605;28;20259;-87
2023/11/26 07:44:41;;;;;;;8.02;5.50;;;;;;;4.97;95.96;98141.69;4182638;28;20203;-87
2023/11/26 07:46:44;;;;;;;7.93;6.00;;;;;;;4.98;95.65;98146.78;4177590;28;20206;-87
2023/11/26 07:48:49;;;;;;;6.60;5.03;;;;;;;4.98;95.50;98140.78;4182260;28;20209;-87
2023/11/26 07:50:52;;;;;;;7.05;5.20;;;;;;;4.99;95.09;98145.91;4174327;28;20233;-87
2023/11/26 07:52:55;;;;;;;8.60;5.18;;;;;;;5.02;95.39;98148.34;4172862;28;20210;-87
2023/11/26 07:55:01;;;;;;;7.43;5.22;;;;;;;5.02;95.76;98144.91;4185239;28;20217;-87
2023/11/26 07:57:04;;;;;;;9.73;6.88;;;;;;;5.06;95.81;98146.44;4173791;28;20234;-87
2023/11/26 07:59:08;;;;;;;6.65;5.32;;;;;;;5.07;95.88;98151.53;4186506;28;20568;-87
2023/11/26 08:01:12;;;;;;;7.53;4.80;;;;;;;5.09;95.97;98152.31;4171577;28;20767;-87
2023/11/26 08:03:16;;;;;;;6.38;4.60;;;;;;;5.08;95.92;98147.19;4188065;28;20236;-86
2023/11/26 08:05:19;;;;;;;5.53;4.25;;;;;;;5.10;96.13;98153.13;4196191;28;20236;-86
2023/11/26 08:07:23;;;;;;;6.13;3.83;;;;;;;5.11;96.09;98152.22;4188452;28;20644;-86
2023/11/26 08:09:29;;;;;;;6.40;4.80;;;;;;;5.12;96.25;98154.75;4172650;28;20248;-87
2023/11/26 08:11:34;;;;;;;6.78;3.67;;;;;;;5.13;96.38;98167.59;4183765;28;20221;-87
2023/11/26 08:13:41;;;;;;;5.05;4.10;;;;;;;5.16;95.32;98169.22;4168519;28;20206;-87
2023/11/26 08:15:44;;;;;;;5.60;4.25;;;;;;;5.16;95.97;98158.88;4187047;28;20579;-87
2023/11/26 08:17:50;;;;;;;6.07;3.80;;;;;;;5.18;95.65;98160.47;4189470;28;20197;-87
2023/11/26 08:19:54;;;;;;;6.05;4.65;;;;;;;5.21;96.53;98157.72;4187771;28;20251;-86
2023/11/26 08:21:57;;;;;;;4.88;4.30;;;;;;;5.25;96.43;98167.03;4175473;28;20212;-87
2023/11/26 08:24:01;;;;;;;7.47;5.80;;;;;;;5.27;96.39;98166.97;4190036;28;20225;-87
2023/11/26 08:26:05;;;;;;;7.00;4.97;;;;;;;5.31;95.76;98164.16;4191465;28;20202;-87
2023/11/26 08:28:18;;;;;;;6.45;4.72;;;;;;;5.32;96.39;98165.84;4189149;28;20251;-87
2023/11/26 08:32:46;;;;;;;9.13;6.25;;;;;;;5.29;94.95;98167.72;4179542;28;20249;-87
2023/11/26 08:34:51;;;;;;;8.23;5.70;;;;;;;5.30;95.65;98166.81;4188227;28;20768;-87
2023/11/26 08:36:57;;;;;;;7.55;4.82;;;;;;;5.33;95.78;98174.44;4170617;28;20199;-87
2023/11/26 08:39:00;;;;;;;5.93;4.68;;;;;;;5.35;95.67;98176.06;4187836;28;20197;-87
2023/11/26 08:41:05;;;;;;;10.10;4.93;;;;;;;5.36;95.04;98169.13;4189888;28;20296;-88
2023/11/26 08:43:10;;;;;;;5.55;4.55;;;;;;;5.38;95.64;98178.50;4189701;28;20209;-90
2023/11/26 08:45:15;;;;;;;6.78;5.00;;;;;;;5.43;95.26;98173.94;4191657;28;20205;-87
2023/11/26 08:47:20;;;;;;;6.65;4.72;;;;;;;5.46;95.72;98163.44;4188523;28;20206;-87
2023/11/26 08:49:24;;;;;;;7.20;5.20;;;;;;;5.48;95.92;98169.38;4187992;28;20628;-88
2023/11/26 08:51:26;;;;;;;13.50;6.45;;;;;;;5.50;95.30;98171.91;4193567;28;20235;-88
2023/11/26 08:53:31;;;;;;;6.70;3.92;;;;;;;5.49;95.37;98175.38;4178247;28;20214;-88
2023/11/26 08:55:33;;;;;;;6.30;4.45;;;;;;;5.49;95.15;98176.25;4188880;28;20934;-87
2023/11/26 08:57:39;;;;;;;6.57;5.22;;;;;;;5.49;94.84;98178.81;4187326;28;20206;-88
2023/11/26 08:59:45;;;;;;;9.57;5.15;;;;;;;5.51;95.44;98179.59;4192664;28;20254;-87
2023/11/26 09:01:49;;;;;;;8.63;4.90;;;;;;;5.56;95.42;98177.59;4173057;28;20510;-88
2023/11/26 09:03:53;;;;;;;10.57;5.07;;;;;;;5.60;94.75;98168.81;4176085;28;20291;-88
2023/11/26 09:05:55;;;;;;;8.57;5.75;;;;;;;5.62;94.93;98172.16;4178107;28;20255;-88
2023/11/26 09:07:59;;;;;;;6.97;5.63;;;;;;;5.65;94.72;98175.44;4177663;28;20328;-88
2023/11/26 09:10:02;;;;;;;6.25;5.40;;;;;;;5.64;95.02;98176.34;4190655;28;20251;-87
2023/11/26 09:12:07;;;;;;;7.75;5.30;;;;;;;5.67;95.45;98172.78;4176725;28;20250;-88
2023/11/26 09:14:10;;;;;;;5.63;4.90;;;;;;;5.67;95.48;98181.38;4185310;28;20202;-88
2023/11/26 09:16:13;;;;;;;7.68;5.30;;;;;;;5.66;94.99;98181.44;4188008;28;20197;-88
2023/11/26 09:18:18;;;;;;;6.78;5.93;;;;;;;5.67;95.33;98180.53;4190004;28;20288;-88
2023/11/26 09:20:21;;;;;;;6.45;4.88;;;;;;;5.68;95.29;98184.78;4194452;28;20259;-88
2023/11/26 09:22:24;;;;;;;6.35;4.70;;;;;;;5.70;95.70;98178.63;4206380;28;20205;-88
2023/11/26 09:24:26;;;;;;;6.13;5.10;;;;;;;5.75;95.76;98186.22;4188634;28;20206;-88
2023/11/26 09:26:30;;;;;;;6.45;5.32;;;;;;;5.79;96.53;98190.34;4189484;28;20209;-88
2023/11/26 09:28:33;;;;;;;5.72;5.10;;;;;;;5.80;96.46;98190.28;4193743;28;20672;-88
2023/11/26 09:30:36;;;;;;;7.53;4.53;;;;;;;5.82;96.62;98187.59;4194851;28;20694;-88
2023/11/26 09:32:41;;;;;;;6.60;5.93;;;;;;;5.85;96.54;98190.88;4186448;28;20221;-88
2023/11/26 09:34:47;;;;;;;6.32;4.70;;;;;;;5.86;95.96;98191.72;4187326;28;20210;-87
2023/11/26 09:36:58;;;;;;;5.25;3.90;;;;;;;5.88;96.39;98189.88;4186952;28;20210;-87
2023/11/26 09:39:01;;;;;;;9.27;4.55;;;;;;;5.90;96.47;98188.06;4189853;28;20202;-87
2023/11/26 09:41:04;;;;;;;7.13;5.50;;;;;;;5.94;96.08;98176.63;4190220;28;20211;-87
2023/11/26 09:43:07;;;;;;;10.27;5.53;;;;;;;5.97;96.14;98181.66;4191642;28;20707;-87
2023/11/26 09:45:11;;;;;;;7.82;5.50;;;;;;;5.99;95.60;98183.28;4175664;28;20195;-88
2023/11/26 09:47:15;;;;;;;10.77;6.93;;;;;;;6.02;96.14;98174.53;4189692;28;20203;-88
2023/11/26 09:49:18;;;;;;;25.73;14.73;;;;;;;5.99;95.05;98187.63;4178516;28;20226;-87
2023/11/26 09:51:24;;;;;;;13.75;9.45;;;;;;;5.97;95.47;98176.50;4190517;28;20304;-87
2023/11/26 09:53:28;;;;;;;10.15;7.72;;;;;;;5.99;95.62;98180.69;4187562;28;20224;-88